Time;durP1;ratioP1;P1;durP2;ratioP2;P2;SDS_P1;SDS_P2;PMS_P1;PMS_P2;Temp;Humidity;BMP_temperature;BMP_pressure;BME280_temperature;BME280_humidity;BME280_pressure;Samples;Min_cycle;Max_cycle;Signal;HPM_P1;HPM_P2
2022/05/27 00:02:15;;;;;;;;;3.67;3.00;;;;;17.08;69.54;101446.50;5054714;28;46276;-70
2022/05/27 00:04:41;;;;;;;;;3.00;3.00;;;;;17.07;69.67;101444.72;5051903;28;45801;-71
2022/05/27 00:07:07;;;;;;;;;5.00;3.67;;;;;17.07;69.84;101438.56;5050903;28;46248;-70
2022/05/27 00:09:32;;;;;;;;;3.00;2.67;;;;;17.01;69.44;101427.88;5051277;28;45675;-71
2022/05/27 00:11:58;;;;;;;;;4.00;4.00;;;;;17.03;69.88;101437.63;5055538;28;45643;-71
2022/05/27 00:14:24;;;;;;;;;4.00;3.00;;;;;16.89;70.73;101408.34;5052193;28;45559;-71
2022/05/27 00:16:49;;;;;;;;;4.00;3.00;;;;;16.99;71.10;101427.88;5050590;28;45667;-71
2022/05/27 00:19:16;;;;;;;;;3.00;3.00;;;;;16.99;70.71;101426.97;5051039;28;46221;-71
2022/05/27 00:21:42;;;;;;;;;2.33;2.00;;;;;16.99;70.73;101421.69;5050077;28;45450;-71
2022/05/27 00:24:07;;;;;;;;;3.00;2.67;;;;;16.98;71.10;101422.56;5053613;28;46101;-71
2022/05/27 00:26:33;;;;;;;;;4.00;3.67;;;;;16.94;70.84;101415.44;5053228;28;45428;-71
2022/05/27 00:28:59;;;;;;;;;3.67;3.00;;;;;16.90;71.31;101410.09;5054122;28;45437;-71
2022/05/27 00:31:24;;;;;;;;;3.00;3.00;;;;;16.80;71.21;101396.69;5049635;28;45545;-71
2022/05/27 00:33:50;;;;;;;;;3.00;3.00;;;;;16.85;71.29;101406.50;5051760;28;45526;-71
2022/05/27 00:36:16;;;;;;;;;4.67;3.00;;;;;16.81;71.47;101407.31;5054055;28;45447;-70
2022/05/27 00:38:43;;;;;;;;;5.00;4.00;;;;;16.77;71.32;101399.25;5053739;28;45318;-71
2022/05/27 00:41:11;;;;;;;;;5.33;3.00;;;;;16.79;71.61;101410.75;5051340;28;45358;-71
2022/05/27 00:43:37;;;;;;;;;4.00;3.33;;;;;16.75;71.52;101404.53;5049313;28;46485;-71
2022/05/27 00:46:15;;;;;;;;;3.00;3.00;;;;;16.75;71.72;101406.25;5052501;28;45625;-71
2022/05/27 00:48:43;;;;;;;;;3.00;3.00;;;;;16.67;71.48;101393.84;5054512;28;45411;-70
2022/05/27 00:51:17;;;;;;;;;5.33;3.67;;;;;16.66;71.63;101399.09;5052541;28;45534;-71
2022/05/27 00:54:10;;;;;;;;;4.00;4.00;;;;;16.59;71.75;101398.09;5049582;28;45628;-71
2022/05/27 00:56:40;;;;;;;;;3.00;3.00;;;;;16.55;72.03;101396.22;5049943;28;45530;-71
2022/05/27 00:59:18;;;;;;;;;4.00;3.00;;;;;16.53;71.98;101392.66;5053048;28;45442;-71
2022/05/27 01:01:45;;;;;;;;;5.00;4.00;;;;;16.52;72.03;101388.28;5052178;28;45394;-71
2022/05/27 01:04:11;;;;;;;;;4.00;2.67;;;;;16.52;72.04;101382.13;5051792;28;46303;-71
2022/05/27 01:06:36;;;;;;;;;4.00;4.00;;;;;16.53;72.09;101387.41;5051026;28;45479;-71
2022/05/27 01:09:03;;;;;;;;;4.33;3.67;;;;;16.52;72.26;101382.13;5047963;28;45433;-71
2022/05/27 01:11:34;;;;;;;;;4.33;3.00;;;;;16.53;72.24;101376.84;5047756;28;45525;-71
2022/05/27 01:14:18;;;;;;;;;3.00;3.00;;;;;16.52;72.39;101376.84;5047648;28;46318;-71
2022/05/27 01:17:08;;;;;;;;;5.00;4.00;;;;;16.52;72.42;101383.00;5047197;28;45475;-71
2022/05/27 01:20:20;;;;;;;;;4.00;4.00;;;;;16.50;72.30;101376.81;5041098;28;45491;-72
2022/05/27 01:23:13;;;;;;;;;4.67;3.33;;;;;16.50;72.15;101369.78;5051369;28;45596;-71
2022/05/27 01:25:48;;;;;;;;;3.33;3.00;;;;;16.52;72.32;101368.94;5040788;28;45636;-71
2022/05/27 01:28:35;;;;;;;;;3.33;3.00;;;;;16.53;72.27;101368.06;5047145;28;45227;-71
2022/05/27 01:31:10;;;;;;;;;3.33;3.00;;;;;16.54;72.23;101367.22;5051844;28;45738;-71
2022/05/27 01:33:53;;;;;;;;;3.00;3.00;;;;;16.51;72.18;101362.75;5054292;28;45277;-71
2022/05/27 01:36:37;;;;;;;;;4.00;3.00;;;;;16.52;71.98;101372.44;5042344;28;45445;-71
2022/05/27 01:39:12;;;;;;;;;5.00;4.00;;;;;16.53;72.14;101365.41;5047742;28;45459;-71
2022/05/27 01:42:04;;;;;;;;;4.00;3.00;;;;;16.55;72.19;101358.41;5042743;28;45502;-71
2022/05/27 01:44:56;;;;;;;;;3.67;3.00;;;;;16.54;72.33;101351.38;5049334;28;45617;-71
2022/05/27 01:47:49;;;;;;;;;4.00;2.67;;;;;16.57;72.12;101347.03;5049200;28;45311;-71
2022/05/27 01:50:42;;;;;;;;;3.67;3.00;;;;;16.59;72.28;101345.34;5048732;28;45364;-71
2022/05/27 01:53:18;;;;;;;;;4.00;3.00;;;;;16.59;72.33;101347.97;5054164;28;45436;-71
2022/05/27 01:56:00;;;;;;;;;7.33;3.33;;;;;16.49;72.33;101322.25;5048775;28;45516;-71
2022/05/27 01:58:32;;;;;;;;;3.67;3.67;;;;;16.61;72.40;101346.25;5049453;28;45505;-71
2022/05/27 02:00:58;;;;;;;;;4.67;3.33;;;;;16.59;72.14;101345.34;5049417;28;45490;-71
2022/05/27 02:03:32;;;;;;;;;4.33;4.00;;;;;16.59;71.99;101344.41;5046063;28;45477;-71
2022/05/27 02:06:27;;;;;;;;;3.67;3.00;;;;;16.56;72.25;101341.75;5047120;28;45636;-71
2022/05/27 02:08:58;;;;;;;;;4.67;4.00;;;;;16.38;71.66;101310.66;5024699;28;45280;-71
2022/05/27 02:11:24;;;;;;;;;3.00;3.00;;;;;16.54;72.16;101335.56;5046519;28;45374;-71
2022/05/27 02:13:58;;;;;;;;;2.00;2.00;;;;;16.40;71.42;101317.72;5050275;28;45405;-71
2022/05/27 02:16:48;;;;;;;;;6.00;3.00;;;;;16.44;71.38;101308.13;5046501;28;45296;-71
2022/05/27 02:19:24;;;;;;;;;5.00;5.00;;;;;16.53;71.59;101336.41;5044318;28;45855;-71
2022/05/27 02:22:15;;;;;;;;;3.00;3.00;;;;;16.52;71.78;101329.38;5046710;28;45551;-71
2022/05/27 02:24:55;;;;;;;;;2.00;2.00;;;;;16.52;70.91;101326.72;5057002;28;45509;-71
2022/05/27 02:27:31;;;;;;;;;3.33;3.33;;;;;16.46;71.28;101331.03;5056412;28;45385;-71
2022/05/27 02:30:01;;;;;;;;;2.00;2.00;;;;;16.41;70.31;101330.06;5053661;28;46074;-71
2022/05/27 02:32:36;;;;;;;;;3.00;3.00;;;;;16.33;70.77;101328.13;5043776;28;45504;-71
2022/05/27 02:35:08;;;;;;;;;2.00;2.00;;;;;16.30;70.49;101324.56;5043772;28;45471;-71
2022/05/27 02:37:46;;;;;;;;;3.00;3.00;;;;;16.23;70.64;101314.75;5048534;28;45516;-71
2022/05/27 02:40:21;;;;;;;;;3.00;3.00;;;;;16.20;71.07;101308.56;5045690;28;45519;-71
2022/05/27 02:43:01;;;;;;;;;4.00;4.00;;;;;16.28;70.86;101314.88;5048366;28;45474;-71
2022/05/27 02:45:36;;;;;;;;;3.00;3.00;;;;;16.31;70.82;101317.53;5048389;28;45325;-71
2022/05/27 02:48:19;;;;;;;;;3.00;3.00;;;;;16.32;70.54;101308.78;5048142;28;45537;-71
2022/05/27 02:50:58;;;;;;;;;4.00;3.33;;;;;16.30;71.01;101306.13;5039990;28;46087;-71
2022/05/27 02:53:41;;;;;;;;;2.00;2.00;;;;;16.32;71.21;101308.78;5045970;28;45628;-72
2022/05/27 02:56:13;;;;;;;;;3.00;3.00;;;;;16.18;70.89;101276.00;5045063;28;45544;-71
2022/05/27 02:58:39;;;;;;;;;3.00;3.00;;;;;16.34;70.85;101296.50;5046244;28;45519;-71
2022/05/27 03:01:05;;;;;;;;;3.67;3.00;;;;;16.33;70.87;101301.75;5043869;28;45415;-71
2022/05/27 03:03:31;;;;;;;;;4.00;3.33;;;;;16.33;70.97;101296.47;5045789;28;45751;-71
2022/05/27 03:06:15;;;;;;;;;2.67;2.33;;;;;16.33;70.92;101293.84;5045889;28;45406;-71
2022/05/27 03:09:02;;;;;;;;;3.00;2.67;;;;;16.31;71.16;101293.81;5046183;28;46745;-71
2022/05/27 03:12:09;;;;;;;;;3.33;2.00;;;;;16.28;71.31;101292.00;5042585;28;45490;-71
2022/05/27 03:15:00;;;;;;;;;3.33;3.33;;;;;16.26;71.12;101288.47;5043242;28;45588;-71
2022/05/27 03:17:28;;;;;;;;;2.00;2.00;;;;;16.24;71.72;101291.94;5044102;28;45501;-71
2022/05/27 03:20:13;;;;;;;;;2.67;2.00;;;;;16.22;71.45;101288.38;5047651;28;45406;-71
2022/05/27 03:23:09;;;;;;;;;2.00;1.00;;;;;16.21;70.74;101283.97;5054745;28;46389;-71
2022/05/27 03:26:19;;;;;;;;;2.67;2.67;;;;;16.20;71.03;101285.72;5050001;28;45849;-71
2022/05/27 03:29:02;;;;;;;;;2.33;2.33;;;;;16.19;71.08;101288.31;4993466;28;45446;-71
2022/05/27 03:31:35;;;;;;;;;2.33;2.00;;;;;16.04;71.16;101252.91;4993887;28;45667;-71
2022/05/27 03:34:21;;;;;;;;;3.67;3.00;;;;;16.19;70.98;101283.03;5030220;28;45553;-71
2022/05/27 03:37:03;;;;;;;;;4.00;3.33;;;;;16.09;72.06;101269.72;5053138;28;45589;-71
2022/05/27 03:39:31;;;;;;;;;4.00;3.00;;;;;16.18;72.68;101276.00;5044517;28;45918;-71
2022/05/27 03:42:02;;;;;;;;;4.00;3.00;;;;;16.18;72.44;101282.16;5046612;28;45374;-70
2022/05/27 03:44:28;;;;;;;;;3.33;3.00;;;;;16.21;72.83;101281.31;5052770;28;46279;-71
2022/05/27 03:46:56;;;;;;;;;13.50;13.00;;;;;16.10;72.81;101266.19;5043987;28;45567;-71
2022/05/27 03:49:22;;;;;;;;;8.67;8.67;;;;;16.23;72.93;101280.47;5043888;28;45439;-71
2022/05/27 03:51:57;;;;;;;;;4.00;4.00;;;;;16.23;72.98;101279.59;5045195;28;45567;-71
2022/05/27 03:54:23;;;;;;;;;3.00;2.67;;;;;16.25;73.05;101275.25;5045327;28;46232;-71
2022/05/27 03:56:50;;;;;;;;;3.00;3.00;;;;;16.27;72.84;101276.16;5037911;28;45352;-71
2022/05/27 03:59:17;;;;;;;;;4.00;3.33;;;;;16.26;72.79;101277.91;5047766;28;45524;-71
2022/05/27 04:01:47;;;;;;;;;3.00;3.00;;;;;16.27;72.81;101278.78;5046008;28;45489;-71
2022/05/27 04:04:16;;;;;;;;;3.67;3.00;;;;;16.27;72.94;101282.34;5049688;28;46181;-71
2022/05/27 04:06:43;;;;;;;;;3.00;3.00;;;;;16.27;73.01;101278.78;5044332;28;45544;-71
2022/05/27 04:09:09;;;;;;;;;4.00;3.33;;;;;16.27;72.83;101273.53;5047039;28;45350;-71
2022/05/27 04:11:36;;;;;;;;;3.67;3.00;;;;;16.29;72.84;101279.72;5050994;28;45390;-71
2022/05/27 04:14:02;;;;;;;;;3.33;3.33;;;;;16.30;72.93;101274.47;5046402;28;45355;-71
2022/05/27 04:16:27;;;;;;;;;3.00;2.67;;;;;16.32;72.65;101277.16;5049149;28;45312;-71
2022/05/27 04:18:53;;;;;;;;;4.00;4.00;;;;;16.24;72.87;101263.81;5068828;28;45382;-71
2022/05/27 04:21:19;;;;;;;;;4.00;4.00;;;;;16.33;72.89;101273.63;5048690;28;45589;-71
2022/05/27 04:23:44;;;;;;;;;3.00;3.00;;;;;16.34;72.84;101279.81;5046888;28;46019;-72
2022/05/27 04:26:11;;;;;;;;;2.67;2.67;;;;;16.35;72.64;101285.09;5047027;28;45460;-72
2022/05/27 04:28:37;;;;;;;;;3.67;3.00;;;;;16.37;72.36;101287.75;5042879;28;45395;-71
2022/05/27 04:31:04;;;;;;;;;4.00;2.67;;;;;16.37;71.72;101290.41;5050713;28;45425;-72
2022/05/27 04:33:30;;;;;;;;;4.00;4.00;;;;;16.33;71.66;101294.72;5041415;28;45512;-72
2022/05/27 04:35:57;;;;;;;;;2.33;2.00;;;;;16.31;72.09;101291.19;5072751;28;45453;-72
2022/05/27 04:38:23;;;;;;;;;2.33;2.33;;;;;16.17;71.82;101261.03;5065933;28;45462;-72
2022/05/27 04:40:49;;;;;;;;;3.33;2.67;;;;;16.14;72.03;101258.38;5053829;28;45481;-72
2022/05/27 04:43:16;;;;;;;;;3.33;3.33;;;;;16.37;72.51;101300.94;5049226;28;46164;-72
2022/05/27 04:45:42;;;;;;;;;3.33;3.33;;;;;16.38;72.57;101298.34;5048930;28;45529;-71
2022/05/27 04:48:09;;;;;;;;;4.67;3.00;;;;;16.41;71.85;101298.41;5049167;28;45568;-72
2022/05/27 04:50:35;;;;;;;;;3.00;3.00;;;;;16.34;72.42;101285.09;5062860;28;45387;-72
2022/05/27 04:53:01;;;;;;;;;3.00;2.00;;;;;16.34;71.53;101285.97;5049445;28;45406;-72
2022/05/27 04:55:30;;;;;;;;;5.33;3.33;;;;;16.35;71.30;101292.13;5049854;28;45565;-72
2022/05/27 04:57:56;;;;;;;;;3.00;3.00;;;;;16.42;71.41;101300.19;5047692;28;45623;-71
2022/05/27 05:00:26;;;;;;;;;2.33;2.00;;;;;16.46;71.40;101306.41;5058192;28;45463;-71
2022/05/27 05:02:52;;;;;;;;;3.00;3.00;;;;;16.48;71.42;101309.94;5049569;28;45414;-71
2022/05/27 05:05:20;;;;;;;;;3.00;3.00;;;;;16.45;71.21;101294.97;5068079;28;45470;-71
2022/05/27 05:07:48;;;;;;;;;3.00;2.00;;;;;16.52;71.51;101310.91;5049144;28;45386;-71
2022/05/27 05:10:17;;;;;;;;;3.00;3.00;;;;;16.55;71.19;101314.47;5070748;28;45429;-71
2022/05/27 05:12:44;;;;;;;;;3.00;3.00;;;;;16.49;71.23;101295.88;5046895;28;46151;-71
2022/05/27 05:15:11;;;;;;;;;4.00;2.00;;;;;16.62;71.25;101310.19;5046135;28;45512;-71
2022/05/27 05:17:38;;;;;;;;;3.00;2.00;;;;;16.68;71.09;101307.66;5047190;28;45466;-71
2022/05/27 05:20:05;;;;;;;;;4.33;3.33;;;;;16.73;70.55;101310.38;5057094;28;45474;-71
2022/05/27 05:22:31;;;;;;;;;3.00;3.00;;;;;16.77;70.39;101317.47;5051406;28;45494;-71
2022/05/27 05:24:57;;;;;;;;;3.00;2.33;;;;;16.70;70.20;101292.75;5039582;28;45376;-71
2022/05/27 05:27:25;;;;;;;;;4.00;3.00;;;;;16.82;69.86;101310.56;5047713;28;45325;-71
2022/05/27 05:29:52;;;;;;;;;4.00;2.67;;;;;16.85;69.67;101308.88;5040951;28;45413;-72
2022/05/27 05:32:17;;;;;;;;;4.00;4.00;;;;;16.90;69.60;101308.94;5049644;28;45435;-71
2022/05/27 05:34:43;;;;;;;;;5.67;4.67;;;;;16.98;69.29;101303.78;5046820;28;45599;-71
2022/05/27 05:37:09;;;;;;;;;4.00;4.00;;;;;17.02;69.12;101303.84;5047197;28;45174;-71
2022/05/27 05:39:36;;;;;;;;;4.67;4.67;;;;;17.09;68.93;101299.56;5047499;28;45343;-71
2022/05/27 05:42:04;;;;;;;;;5.67;3.67;;;;;17.16;68.44;101306.69;5047021;28;45476;-71
2022/05/27 05:44:33;;;;;;;;;2.67;2.67;;;;;17.23;67.87;101298.03;5046024;28;45435;-71
2022/05/27 05:46:59;;;;;;;;;5.00;3.00;;;;;17.32;67.58;101299.00;5048241;28;46218;-71
2022/05/27 05:49:25;;;;;;;;;4.33;4.00;;;;;17.37;67.41;101292.94;5047920;28;45381;-71
2022/05/27 05:51:54;;;;;;;;;3.33;3.00;;;;;17.40;67.13;101298.25;5048921;28;45507;-71
2022/05/27 05:54:21;;;;;;;;;4.33;3.33;;;;;17.32;67.15;101276.13;5039712;28;45540;-71
2022/05/27 05:56:50;;;;;;;;;3.33;2.67;;;;;17.49;66.73;101284.28;5047126;28;45294;-71
2022/05/27 05:59:17;;;;;;;;;4.67;3.67;;;;;17.70;66.29;101292.47;5041883;28;45536;-71
2022/05/27 06:01:43;;;;;;;;;4.67;4.00;;;;;17.87;65.73;101297.13;5051833;28;45512;-71
2022/05/27 06:04:09;;;;;;;;;7.33;7.33;;;;;17.91;65.15;101279.56;5047315;28;45539;-71
2022/05/27 06:06:35;;;;;;;;;6.67;6.00;;;;;18.15;64.75;101286.88;5044171;28;45505;-71
2022/05/27 06:09:01;;;;;;;;;4.33;4.00;;;;;18.42;64.12;101284.50;5053018;28;45405;-71
2022/05/27 06:11:27;;;;;;;;;4.33;3.00;;;;;18.69;63.06;101296.22;5044630;28;45564;-71
2022/05/27 06:13:53;;;;;;;;;5.00;5.00;;;;;18.72;62.42;101295.34;5050756;28;45442;-71
2022/05/27 06:16:18;;;;;;;;;5.00;4.00;;;;;18.72;62.48;101293.59;5049230;28;45495;-71
2022/05/27 06:18:45;;;;;;;;;14.00;10.00;;;;;18.81;62.11;101292.81;5062727;28;45355;-71
2022/05/27 06:21:11;;;;;;;;;6.33;5.33;;;;;19.02;61.42;101290.34;5047123;28;46230;-71
2022/05/27 06:23:36;;;;;;;;;3.00;3.00;;;;;19.16;60.96;101282.47;5048107;28;45449;-71
2022/05/27 06:26:06;;;;;;;;;3.33;2.33;;;;;19.25;61.05;101285.16;5051213;28;45498;-71
2022/05/27 06:34:23;;;;;;;;;3.00;3.00;;;;;19.44;59.97;101291.47;5045654;28;45567;-73
2022/05/27 06:36:50;;;;;;;;;3.67;3.67;;;;;19.51;60.12;101297.69;5051973;28;46353;-71
2022/05/27 06:39:17;;;;;;;;;4.00;4.00;;;;;19.56;59.67;101288.00;5047969;28;45561;-71
2022/05/27 06:41:43;;;;;;;;;3.00;3.00;;;;;19.51;59.82;101283.56;5049392;28;46124;-72
2022/05/27 06:44:09;;;;;;;;;4.67;2.67;;;;;19.37;59.67;101275.53;5042962;28;45585;-71
2022/05/27 06:46:35;;;;;;;;;4.00;3.00;;;;;19.32;60.18;101288.75;5045290;28;45558;-72
2022/05/27 06:49:02;;;;;;;;;2.00;2.00;;;;;19.23;60.53;101291.34;5048514;28;45490;-71
2022/05/27 06:51:27;;;;;;;;;2.33;2.33;;;;;18.99;60.22;101294.72;5048803;28;46920;-71
2022/05/27 06:53:53;;;;;;;;;4.00;3.00;;;;;18.86;61.23;101294.63;5052674;28;45408;-71
2022/05/27 06:56:21;;;;;;;;;4.67;3.33;;;;;18.87;60.99;101285.78;5050738;28;45375;-71
2022/05/27 06:58:46;;;;;;;;;3.33;2.00;;;;;18.85;60.78;101292.84;5044059;28;45431;-71
2022/05/27 07:01:12;;;;;;;;;2.00;1.67;;;;;18.60;61.00;101290.81;5040848;28;45338;-71
2022/05/27 07:03:39;;;;;;;;;3.67;3.00;;;;;18.29;61.89;101295.84;5047115;28;45365;-71
2022/05/27 07:06:10;;;;;;;;;2.67;2.33;;;;;18.40;62.05;101293.28;5044547;28;45439;-71
2022/05/27 07:08:36;;;;;;;;;5.00;4.67;;;;;18.52;61.38;101295.16;5038606;28;45498;-71
2022/05/27 07:11:03;;;;;;;;;2.00;2.00;;;;;18.37;61.66;101282.69;5046536;28;46034;-71
2022/05/27 07:13:30;;;;;;;;;4.00;4.00;;;;;18.37;61.92;101299.44;5049039;28;45395;-71
2022/05/27 07:15:56;;;;;;;;;3.00;3.00;;;;;18.53;61.56;101283.72;5062389;28;45429;-71
2022/05/27 07:18:21;;;;;;;;;7.33;6.00;;;;;18.84;61.26;101301.66;5045429;28;45624;-71
2022/05/27 07:20:47;;;;;;;;;3.33;2.67;;;;;19.04;60.39;101287.69;5036617;28;45878;-71
2022/05/27 07:23:14;;;;;;;;;8.33;5.67;;;;;19.47;59.77;101296.78;5036058;28;45489;-71
2022/05/27 07:25:40;;;;;;;;;3.00;2.67;;;;;19.81;58.76;101298.72;5041572;28;45500;-71
2022/05/27 07:28:07;;;;;;;;;4.00;4.00;;;;;19.99;57.61;101298.78;5043717;28;45367;-71
2022/05/27 07:30:33;;;;;;;;;3.67;3.00;;;;;20.12;58.34;101302.38;5045051;28;46240;-71
2022/05/27 07:32:59;;;;;;;;;3.00;3.00;;;;;20.16;58.38;101303.28;5046268;28;45609;-71
2022/05/27 07:35:25;;;;;;;;;11.67;8.67;;;;;20.12;58.19;101299.72;5040915;28;45509;-70
2022/05/27 07:37:51;;;;;;;;;4.67;3.67;;;;;20.10;58.03;101297.97;5050376;28;45571;-69
2022/05/27 07:40:17;;;;;;;;;4.00;3.67;;;;;20.04;57.84;101296.16;5045342;28;45958;-70
2022/05/27 07:42:43;;;;;;;;;4.00;3.33;;;;;20.02;58.28;101288.19;5045317;28;46361;-70
2022/05/27 07:45:11;;;;;;;;;2.33;2.33;;;;;20.11;57.54;101307.66;5043233;28;45427;-70
2022/05/27 07:47:36;;;;;;;;;5.33;3.00;;;;;20.22;57.30;101308.59;5044716;28;45996;-69
2022/05/27 07:50:03;;;;;;;;;4.00;4.00;;;;;20.42;57.02;101308.63;5048510;28;45433;-70
2022/05/27 07:52:30;;;;;;;;;4.00;3.00;;;;;21.09;56.17;101302.50;5044157;28;45380;-70
2022/05/27 07:54:55;;;;;;;;;4.00;4.00;;;;;22.43;52.26;101284.22;5041984;28;45386;-71
2022/05/27 07:57:25;;;;;;;;;1.00;1.00;;;;;23.95;49.46;101303.16;5040309;28;45501;-71
2022/05/27 07:59:59;;;;;;;;;4.67;4.67;;;;;27.16;42.80;101289.69;5038964;28;45488;-71
2022/05/27 08:02:25;;;;;;;;;4.00;4.00;;;;;30.67;37.46;101283.09;5039974;28;45236;-71
2022/05/27 08:04:52;;;;;;;;;5.00;4.00;;;;;30.00;37.89;101282.16;5039825;28;45308;-71
2022/05/27 08:07:18;;;;;;;;;5.33;4.00;;;;;32.90;32.62;101278.97;5058179;28;45752;-72
2022/05/27 08:09:44;;;;;;;;;4.00;4.00;;;;;35.62;28.15;101272.47;5041578;28;46512;-71
2022/05/27 08:12:10;;;;;;;;;4.00;3.67;;;;;35.71;26.71;101273.75;5038610;28;45462;-71
2022/05/27 08:14:36;;;;;;;;;5.00;4.00;;;;;35.93;27.20;101271.38;5038733;28;45508;-71
2022/05/27 08:17:02;;;;;;;;;4.00;4.00;;;;;37.26;25.43;101257.88;5038886;28;45443;-72
2022/05/27 08:19:28;;;;;;;;;3.00;3.00;;;;;37.46;24.85;101263.75;5039645;28;46173;-71
2022/05/27 08:21:54;;;;;;;;;6.00;5.67;;;;;38.26;23.81;101253.34;5039878;28;45446;-71
2022/05/27 08:24:19;;;;;;;;;11.00;9.67;;;;;38.37;22.85;101258.81;5039642;28;45411;-71
2022/05/27 08:26:46;;;;;;;;;5.33;5.00;;;;;38.95;21.90;101267.09;5039680;28;45248;-72
2022/05/27 08:29:13;;;;;;;;;5.67;5.33;;;;;39.79;20.89;101266.81;5038863;28;45391;-71
2022/05/27 08:31:39;;;;;;;;;4.67;4.67;;;;;39.63;23.63;101239.88;5038887;28;45232;-72
2022/05/27 08:39:38;;;;;;;;;4.33;4.00;;;;;36.87;24.82;101256.06;5038622;28;45519;-72
2022/05/27 08:42:19;;;;;;;;;5.00;4.00;;;;;34.79;26.86;101250.47;5045727;28;45712;-72
2022/05/27 08:44:56;;;;;;;;;4.00;4.00;;;;;33.20;28.22;101255.81;5058321;28;45572;-72
2022/05/27 08:47:45;;;;;;;;;3.00;3.00;;;;;34.13;26.54;101249.75;5039079;28;45267;-72
2022/05/27 08:50:24;;;;;;;;;5.00;4.33;;;;;36.45;25.21;101245.31;5037987;28;46057;-72
2022/05/27 08:52:57;;;;;;;;;4.67;4.00;;;;;38.40;21.92;101230.41;5037893;28;45469;-72
2022/05/27 09:01:22;;;;;;;;;6.67;4.00;;;;;34.65;26.12;101246.72;5040127;28;45451;-73
2022/05/27 09:03:57;;;;;;;;;4.67;4.67;;;;;33.19;28.81;101254.09;5049251;28;46627;-73
2022/05/27 09:06:34;;;;;;;;;4.00;3.00;;;;;32.27;28.97;101254.22;5056823;28;45548;-73
2022/05/27 09:09:05;;;;;;;;;4.67;4.67;;;;;31.47;30.78;101247.22;5058133;28;45553;-72
2022/05/27 09:11:59;;;;;;;;;5.00;4.67;;;;;30.96;31.93;101246.81;5057240;28;45324;-72
2022/05/27 09:14:31;;;;;;;;;32.00;30.67;;;;;32.24;29.15;101249.00;5046411;28;45368;-72
2022/05/27 09:17:02;;;;;;;;;4.00;4.00;;;;;31.14;31.35;101245.09;5037163;28;45591;-72
2022/05/27 09:20:01;;;;;;;;;5.00;5.00;;;;;30.47;32.38;101244.34;5065144;28;45492;-72
2022/05/27 09:22:49;;;;;;;;;3.67;3.67;;;;;30.51;32.98;101253.19;5036831;28;46034;-72
2022/05/27 09:25:41;;;;;;;;;2.00;1.67;;;;;30.79;32.40;101250.19;5051283;28;45357;-73
2022/05/27 09:28:27;;;;;;;;;5.00;4.67;;;;;31.52;31.36;101250.59;5043503;28;45440;-71
2022/05/27 09:30:57;;;;;;;;;7.00;4.00;;;;;32.08;29.56;101249.75;5045535;28;45594;-72
2022/05/27 09:33:26;;;;;;;;;2.67;2.67;;;;;30.90;31.72;101255.16;5056396;28;46197;-72
2022/05/27 09:36:03;;;;;;;;;4.33;3.67;;;;;30.85;31.33;101251.75;5072095;28;45547;-72
2022/05/27 09:38:33;;;;;;;;;5.67;4.00;;;;;31.15;31.38;101248.69;5056118;28;45555;-72
2022/05/27 09:41:10;;;;;;;;;5.33;4.33;;;;;34.56;27.74;101243.66;5050686;28;45362;-73
2022/05/27 09:43:49;;;;;;;;;4.00;4.00;;;;;34.64;25.97;101239.53;5037332;28;46154;-72
2022/05/27 09:46:30;;;;;;;;;3.67;3.33;;;;;32.70;28.14;101231.31;5054955;28;45311;-72
2022/05/27 09:48:59;;;;;;;;;5.33;4.00;;;;;31.71;29.40;101245.19;5036887;28;45592;-72
2022/05/27 09:51:29;;;;;;;;;10.00;10.00;;;;;30.77;30.46;101230.50;5037401;28;45527;-72
2022/05/27 09:54:04;;;;;;;;;2.00;2.00;;;;;30.33;31.47;101242.25;5056690;28;48922;-73
2022/05/27 09:56:43;;;;;;;;;2.67;1.67;;;;;30.13;31.69;101248.41;5057392;28;45461;-72
2022/05/27 09:59:25;;;;;;;;;4.00;4.00;;;;;30.43;31.03;101241.88;5057425;28;45373;-72
2022/05/27 10:01:52;;;;;;;;;6.67;4.67;;;;;30.21;31.24;101226.56;5037009;28;45598;-72
2022/05/27 10:04:18;;;;;;;;;3.67;3.67;;;;;30.24;31.23;101239.91;5036206;28;45585;-72
2022/05/27 10:06:44;;;;;;;;;3.67;3.67;;;;;29.94;31.99;101232.13;5036600;28;45466;-73
2022/05/27 10:09:26;;;;;;;;;5.00;4.00;;;;;29.90;32.02;101235.00;5053525;28;45344;-71
2022/05/27 10:11:54;;;;;;;;;2.67;2.67;;;;;29.87;32.19;101233.31;5048211;28;45410;-72
2022/05/27 10:14:28;;;;;;;;;6.00;5.00;;;;;30.45;31.03;101231.91;5036258;28;46065;-72
2022/05/27 10:17:08;;;;;;;;;6.33;5.67;;;;;30.27;30.68;101237.06;5036355;28;45302;-72
2022/05/27 10:19:35;;;;;;;;;5.00;4.33;;;;;30.07;31.37;101220.84;5056391;28;45517;-72
2022/05/27 10:22:29;;;;;;;;;2.00;2.00;;;;;29.82;31.15;101240.69;5056679;28;45486;-72
2022/05/27 10:24:59;;;;;;;;;3.00;3.00;;;;;28.95;31.55;101228.66;5035127;28;46210;-71
2022/05/27 10:27:33;;;;;;;;;3.00;3.00;;;;;28.02;33.43;101235.34;5043839;28;45464;-72
2022/05/27 10:30:06;;;;;;;;;3.00;3.00;;;;;27.35;35.03;101239.09;5056102;28;45342;-72
2022/05/27 10:32:38;;;;;;;;;3.00;2.00;;;;;27.12;35.94;101235.25;5039718;28;45245;-72
2022/05/27 10:35:07;;;;;;;;;1.00;1.00;;;;;26.89;36.24;101248.41;5036123;28;45375;-72
2022/05/27 10:37:45;;;;;;;;;4.33;4.33;;;;;26.74;36.60;101238.94;5036004;28;45489;-71
2022/05/27 10:40:36;;;;;;;;;4.00;3.00;;;;;26.93;35.97;101237.53;5051097;28;45477;-71
2022/05/27 10:43:46;;;;;;;;;5.00;4.00;;;;;27.14;35.51;101233.41;5036054;28;45483;-71
2022/05/27 10:46:18;;;;;;;;;10.00;9.00;;;;;27.20;35.69;101229.69;5035960;28;45820;-72
2022/05/27 10:48:59;;;;;;;;;3.00;3.00;;;;;27.24;35.30;101220.66;5054884;28;45530;-72
2022/05/27 10:51:33;;;;;;;;;4.00;3.00;;;;;27.35;35.97;101229.25;5043484;28;45503;-71
2022/05/27 10:54:17;;;;;;;;;2.00;2.00;;;;;27.39;35.92;101227.34;5036004;28;45540;-71
2022/05/27 11:03:17;;;;;;;;;3.00;2.00;;;;;27.67;35.26;101213.13;5043515;28;45625;-72
2022/05/27 11:06:00;;;;;;;;;3.33;3.00;;;;;27.65;35.04;101223.03;5056411;28;45987;-71
2022/05/27 11:08:30;;;;;;;;;4.33;3.33;;;;;27.88;35.18;101219.69;5054690;28;45311;-71
2022/05/27 11:11:16;;;;;;;;;3.33;3.33;;;;;28.17;34.64;101222.31;5057089;28;45421;-71
2022/05/27 11:17:05;;;;;;;;;3.00;2.33;;;;;27.98;33.99;101225.63;5050339;28;45778;-72
2022/05/27 11:19:58;;;;;;;;;4.00;3.67;;;;;27.65;34.02;101223.91;5045684;28;45308;-72
2022/05/27 11:22:55;;;;;;;;;3.67;3.00;;;;;27.69;34.70;101216.63;5053591;28;45635;-71
2022/05/27 11:25:41;;;;;;;;;2.00;2.00;;;;;27.98;33.83;101210.41;5039213;28;45518;-71
2022/05/27 11:28:18;;;;;;;;;3.00;3.00;;;;;28.15;33.23;101212.53;5056229;28;45470;-71
2022/05/27 11:31:27;;;;;;;;;3.00;3.00;;;;;27.98;33.52;101209.53;5044373;28;45877;-72
2022/05/27 11:34:40;;;;;;;;;3.67;3.67;;;;;27.71;34.15;101198.69;5013031;28;45480;-71
2022/05/27 11:37:17;;;;;;;;;2.33;2.33;;;;;27.65;33.75;101212.28;5057165;28;45470;-72
2022/05/27 11:40:01;;;;;;;;;3.00;3.00;;;;;27.02;34.56;101219.44;5059238;28;45448;-72
2022/05/27 11:43:07;;;;;;;;;3.00;2.67;;;;;27.07;34.87;101215.72;5038778;28;46047;-71
2022/05/27 11:45:34;;;;;;;;;3.00;2.33;;;;;27.13;34.97;101209.31;5053365;28;45276;-72
2022/05/27 11:48:06;;;;;;;;;5.00;5.00;;;;;27.17;35.60;101211.84;5048500;28;45484;-72
2022/05/27 11:50:50;;;;;;;;;3.00;3.00;;;;;27.30;34.55;101211.56;5058729;28;45625;-71
2022/05/27 11:53:37;;;;;;;;;4.00;4.00;;;;;27.12;34.58;101205.75;5044871;28;45760;-70
2022/05/27 11:56:17;;;;;;;;;2.67;2.00;;;;;27.33;35.03;101201.59;5038401;28;45705;-72
2022/05/27 11:58:58;;;;;;;;;3.00;3.00;;;;;27.98;35.23;101196.97;5039213;28;45394;-71
2022/05/27 12:01:50;;;;;;;;;4.00;4.00;;;;;28.26;36.81;101191.56;5039491;28;45486;-71
2022/05/27 12:04:31;;;;;;;;;4.67;4.67;;;;;28.37;36.67;101188.50;5058802;28;46490;-71
2022/05/27 12:07:29;;;;;;;;;3.00;3.00;;;;;28.30;37.08;101185.16;5058510;28;45333;-71
2022/05/27 12:10:30;;;;;;;;;4.33;4.33;;;;;28.37;36.99;101193.88;5039243;28;45472;-71
2022/05/27 12:13:01;;;;;;;;;2.67;2.67;;;;;28.53;36.66;101180.81;5050655;28;45443;-71
2022/05/27 12:15:46;;;;;;;;;4.00;4.00;;;;;28.58;36.90;101176.19;5057471;28;45561;-71
2022/05/27 12:18:22;;;;;;;;;2.67;2.67;;;;;28.48;36.48;101174.72;5058342;28;45571;-72
2022/05/27 12:20:49;;;;;;;;;3.00;3.00;;;;;28.31;36.73;101178.88;5046101;28;45433;-71